16°C Temp
5°C Dewpoint
48% Humidity
Temperature
32 KM/H
20 MPH
17 KTS
30°
North North
East

Wind Speed
Clear
Conditions
Pressure 1010.92 (hPa) - 29.85 (in)
Visibility 6.2 (mi) - 10.0 (km)

Current Conditions
LGAV
Location 12(km)
Metar :LGAV 310720Z 03017KT CAVOK 16/05 Q1011 NOSIG
Tue 31st March 09:20 am

Airport
  Metar Aviation API Data Provided by https://www.checkwx.com/ PHP scripts by weather34.com ©2020